createdAt,value
2018-04-24T00:01:22.291Z,13.70
2018-04-24T00:03:50.728Z,13.70
2018-04-24T00:06:19.176Z,13.70
2018-04-24T00:08:47.770Z,13.70
2018-04-24T00:11:16.485Z,13.70
2018-04-24T00:13:45.216Z,13.70
2018-04-24T00:16:13.667Z,13.80
2018-04-24T00:18:42.371Z,13.80
2018-04-24T00:21:10.825Z,13.80
2018-04-24T00:23:39.360Z,13.70
2018-04-24T00:26:08.105Z,13.80
2018-04-24T00:28:37.400Z,13.80
2018-04-24T00:31:05.764Z,13.70
2018-04-24T00:33:34.457Z,13.80
2018-04-24T00:36:03.663Z,13.80
2018-04-24T00:38:32.900Z,13.80
2018-04-24T00:41:01.761Z,13.80
2018-04-24T00:43:30.719Z,13.80
2018-04-24T00:45:59.177Z,13.80
2018-04-24T00:48:27.781Z,13.80
2018-04-24T00:50:56.218Z,13.80
2018-04-24T00:53:36.772Z,13.80
2018-04-24T00:56:05.569Z,13.70
2018-04-24T00:58:33.461Z,13.80
2018-04-24T01:01:02.169Z,13.80
2018-04-24T01:03:31.476Z,13.80
2018-04-24T01:06:00.223Z,13.80
2018-04-24T01:08:28.674Z,13.80
2018-04-24T01:10:58.141Z,13.80
2018-04-24T01:13:26.843Z,13.80
2018-04-24T01:15:54.953Z,13.80
2018-04-24T01:18:23.383Z,13.80
2018-04-24T01:20:51.978Z,13.80
2018-04-24T01:23:20.421Z,13.80
2018-04-24T01:25:48.629Z,13.80
2018-04-24T01:28:18.024Z,13.70
2018-04-24T01:30:47.241Z,13.80
2018-04-24T01:33:16.727Z,13.80
2018-04-24T01:35:45.935Z,13.80
2018-04-24T01:38:14.326Z,13.80
2018-04-24T01:40:43.001Z,13.80
2018-04-24T01:43:11.432Z,13.80
2018-04-24T01:45:39.980Z,13.80
2018-04-24T01:48:09.439Z,13.80
2018-04-24T01:50:38.641Z,13.80
2018-04-24T01:53:07.359Z,13.80
2018-04-24T01:55:37.041Z,13.80
2018-04-24T01:58:05.621Z,13.70
2018-04-24T02:00:34.843Z,13.80
2018-04-24T02:03:03.326Z,13.80
2018-04-24T02:05:31.908Z,13.80
2018-04-24T02:08:00.594Z,13.90
2018-04-24T02:10:28.797Z,13.90
2018-04-24T02:12:57.440Z,13.90
2018-04-24T02:15:25.868Z,13.90
2018-04-24T02:17:54.296Z,13.80
2018-04-24T02:20:22.756Z,13.80
2018-04-24T02:22:51.800Z,13.90
2018-04-24T02:25:20.514Z,13.90
2018-04-24T02:27:48.945Z,13.90
2018-04-24T02:30:18.429Z,13.80
2018-04-24T02:32:46.636Z,13.80
2018-04-24T02:35:15.078Z,13.80
2018-04-24T02:37:44.294Z,13.70
2018-04-24T02:40:12.732Z,13.70
2018-04-24T02:42:41.961Z,13.80
2018-04-24T02:45:10.408Z,13.70
2018-04-24T02:47:38.902Z,13.70
2018-04-24T02:50:07.436Z,13.70
2018-04-24T02:52:36.205Z,13.70
2018-04-24T02:55:05.670Z,13.60
2018-04-24T02:57:34.382Z,13.60
2018-04-24T03:00:03.244Z,13.60
2018-04-24T03:02:32.434Z,13.50
2018-04-24T03:05:01.637Z,13.50
2018-04-24T03:07:30.184Z,13.50
2018-04-24T03:09:58.706Z,13.50
2018-04-24T03:12:28.343Z,13.60
2018-04-24T03:14:57.258Z,13.60
2018-04-24T03:17:25.732Z,13.50
2018-04-24T03:19:54.396Z,13.60
2018-04-24T03:22:22.871Z,13.60
2018-04-24T03:24:51.296Z,13.50
2018-04-24T03:27:19.728Z,13.50
2018-04-24T03:29:48.237Z,13.50
2018-04-24T03:32:16.966Z,13.50
2018-04-24T03:34:45.965Z,13.50
2018-04-24T03:37:15.277Z,13.50
2018-04-24T03:39:44.665Z,13.50
2018-04-24T03:42:13.383Z,13.50
2018-04-24T03:44:42.060Z,13.50
2018-04-24T03:47:11.453Z,13.40
2018-04-24T03:49:39.896Z,13.40
2018-04-24T03:52:08.353Z,13.40
2018-04-24T03:54:36.801Z,13.40
2018-04-24T03:57:06.261Z,13.40
2018-04-24T03:59:34.740Z,13.40
2018-04-24T04:02:03.532Z,13.50
2018-04-24T04:04:32.733Z,13.40
2018-04-24T04:07:01.441Z,13.40
2018-04-24T04:09:29.887Z,13.50
2018-04-24T04:11:58.622Z,13.50
2018-04-24T04:14:27.077Z,13.50
2018-04-24T04:16:55.608Z,13.40
2018-04-24T04:19:35.493Z,13.40
2018-04-24T04:22:15.370Z,13.40
2018-04-24T04:24:45.720Z,13.40
2018-04-24T04:27:14.187Z,13.40
2018-04-24T04:29:42.637Z,13.40
2018-04-24T04:32:11.136Z,13.40
2018-04-24T04:34:40.600Z,13.40
2018-04-24T04:37:08.787Z,13.40
2018-04-24T04:39:38.013Z,13.40
2018-04-24T04:42:06.490Z,13.40
2018-04-24T04:44:34.930Z,13.40
2018-04-24T04:47:03.656Z,13.30
2018-04-24T04:49:32.115Z,13.20
2018-04-24T04:52:00.912Z,13.20
2018-04-24T04:54:29.427Z,13.10
2018-04-24T04:56:58.157Z,13.10
2018-04-24T04:59:26.863Z,13.10
2018-04-24T05:01:55.574Z,13.10
2018-04-24T05:04:24.281Z,13.10
2018-04-24T05:06:52.715Z,13.20
2018-04-24T05:09:21.217Z,13.30
2018-04-24T05:11:49.926Z,13.40
2018-04-24T05:14:18.627Z,13.40
2018-04-24T05:16:47.081Z,13.40
2018-04-24T05:19:17.049Z,13.50
2018-04-24T05:21:46.271Z,13.70
2018-04-24T05:24:14.709Z,13.70
2018-04-24T05:26:43.405Z,13.90
2018-04-24T05:29:12.117Z,14.00
2018-04-24T05:31:41.587Z,14.00
2018-04-24T05:34:10.793Z,14.00
2018-04-24T05:36:39.289Z,14.00
2018-04-24T05:39:08.042Z,14.00
2018-04-24T05:41:37.249Z,14.00
2018-04-24T05:44:05.768Z,14.00
2018-04-24T05:46:34.926Z,14.10
2018-04-24T05:49:03.638Z,14.10
2018-04-24T05:51:32.217Z,14.30
2018-04-24T05:54:00.743Z,14.40
2018-04-24T05:56:29.173Z,14.50
2018-04-24T05:58:57.848Z,14.60
2018-04-24T06:01:26.578Z,14.70
2018-04-24T06:03:55.008Z,14.80
2018-04-24T06:06:23.714Z,14.90
2018-04-24T06:08:52.434Z,14.80
2018-04-24T06:11:20.884Z,14.80
2018-04-24T06:13:49.902Z,14.90
2018-04-24T06:16:19.362Z,14.70
2018-04-24T06:18:47.806Z,14.70
2018-04-24T06:21:16.319Z,14.80
2018-04-24T06:23:45.536Z,15.00
2018-04-24T06:26:15.172Z,15.00
2018-04-24T06:28:43.993Z,15.00
2018-04-24T06:31:13.318Z,15.20
2018-04-24T06:33:41.804Z,15.20
2018-04-24T06:36:11.196Z,15.40
2018-04-24T06:38:39.805Z,15.40
2018-04-24T06:41:09.281Z,15.80
2018-04-24T06:43:37.718Z,15.80
2018-04-24T06:46:06.497Z,16.10
2018-04-24T06:48:34.935Z,16.40
2018-04-24T06:51:03.369Z,16.70
2018-04-24T06:53:31.484Z,16.90
2018-04-24T06:55:59.920Z,17.20
2018-04-24T06:58:28.357Z,17.40
2018-04-24T07:00:56.910Z,17.60
2018-04-24T07:03:26.206Z,18.20
2018-04-24T07:05:55.406Z,18.40
2018-04-24T07:08:23.969Z,18.40
2018-04-24T07:10:52.601Z,18.70
2018-04-24T07:13:21.024Z,19.00
2018-04-24T07:15:49.730Z,19.10
2018-04-24T07:18:19.224Z,18.20
2018-04-24T07:20:48.424Z,17.60
2018-04-24T07:23:17.004Z,17.60
2018-04-24T07:25:45.781Z,17.30
2018-04-24T07:28:14.223Z,17.20
2018-04-24T07:30:42.633Z,17.10
2018-04-24T07:33:11.961Z,17.00
2018-04-24T07:35:41.173Z,17.30
2018-04-24T07:38:09.631Z,17.30
2018-04-24T07:40:38.133Z,17.40
2018-04-24T07:43:06.324Z,17.60
2018-04-24T07:45:34.764Z,17.70
2018-04-24T07:48:03.970Z,17.10
2018-04-24T07:50:32.668Z,17.10
2018-04-24T07:53:01.416Z,16.90
2018-04-24T07:55:29.847Z,16.90
2018-04-24T07:57:58.293Z,17.10
2018-04-24T08:00:26.860Z,17.30
2018-04-24T08:02:55.577Z,18.40
2018-04-24T08:05:24.018Z,19.30
2018-04-24T08:07:52.502Z,19.60
2018-04-24T08:10:20.934Z,19.30
2018-04-24T08:12:49.444Z,18.90
2018-04-24T08:15:18.195Z,19.20
2018-04-24T08:17:46.651Z,19.70
2018-04-24T08:20:15.859Z,20.60
2018-04-24T08:22:44.839Z,20.50
2018-04-24T08:25:13.385Z,20.70
2018-04-24T08:27:42.041Z,21.10
2018-04-24T08:30:10.501Z,21.90
2018-04-24T08:32:39.209Z,22.00
2018-04-24T08:35:08.523Z,22.60
2018-04-24T08:37:37.209Z,22.60
2018-04-24T08:40:05.827Z,22.50
2018-04-24T08:42:34.421Z,22.90
2018-04-24T08:45:03.637Z,22.90
2018-04-24T08:47:32.189Z,22.80
2018-04-24T08:50:01.400Z,23.80
2018-04-24T08:52:29.877Z,23.80
2018-04-24T08:54:59.088Z,23.30
2018-04-24T08:57:27.516Z,23.30
2018-04-24T08:59:55.973Z,24.50
2018-04-24T09:02:24.413Z,25.70
2018-04-24T09:04:53.389Z,25.50
2018-04-24T09:07:22.724Z,25.00
2018-04-24T09:09:51.485Z,25.00
2018-04-24T09:12:20.192Z,25.40
2018-04-24T09:14:49.594Z,24.90
2018-04-24T09:17:18.044Z,24.80
2018-04-24T09:19:46.812Z,24.60
2018-04-24T09:22:15.492Z,25.20
2018-04-24T09:24:44.251Z,25.60
2018-04-24T09:27:12.811Z,25.20
2018-04-24T09:29:41.137Z,25.40
2018-04-24T09:32:09.542Z,25.10
2018-04-24T09:34:39.165Z,23.40
2018-04-24T09:37:07.918Z,23.40
2018-04-24T09:39:36.374Z,23.10
2018-04-24T09:42:05.048Z,22.60
2018-04-24T09:44:33.350Z,22.50
2018-04-24T09:47:01.988Z,22.60
2018-04-24T09:49:30.426Z,22.90
2018-04-24T09:51:59.067Z,24.40
2018-04-24T09:54:28.532Z,24.90
2018-04-24T09:56:57.231Z,24.90
2018-04-24T09:59:25.564Z,25.70
2018-04-24T10:01:54.185Z,26.20
2018-04-24T10:04:22.641Z,26.70
2018-04-24T10:06:51.855Z,25.40
2018-04-24T10:09:20.286Z,25.30
2018-04-24T10:11:48.733Z,24.20
2018-04-24T10:14:17.469Z,22.90
2018-04-24T10:16:45.901Z,22.80
2018-04-24T10:19:14.408Z,24.30
2018-04-24T10:21:42.863Z,25.10
2018-04-24T10:24:12.335Z,26.60
2018-04-24T10:26:41.782Z,27.20
2018-04-24T10:29:10.946Z,27.20
2018-04-24T10:31:40.346Z,27.90
2018-04-24T10:34:08.783Z,27.80
2018-04-24T10:36:37.405Z,28.30
2018-04-24T10:39:06.057Z,28.10
2018-04-24T10:41:34.497Z,26.90
2018-04-24T10:44:02.933Z,25.10
2018-04-24T10:46:32.140Z,23.00
2018-04-24T10:49:00.653Z,22.90
2018-04-24T10:51:29.105Z,23.30
2018-04-24T10:53:58.500Z,25.00
2018-04-24T10:56:27.698Z,26.00
2018-04-24T10:58:56.910Z,27.20
2018-04-24T11:01:25.715Z,27.10
2018-04-24T11:03:55.773Z,26.30
2018-04-24T11:06:24.510Z,26.30
2018-04-24T11:08:52.953Z,26.90
2018-04-24T11:11:21.672Z,27.20
2018-04-24T11:13:50.327Z,27.80
2018-04-24T11:16:18.921Z,28.10
2018-04-24T11:18:47.489Z,28.20
2018-04-24T11:21:16.527Z,29.50
2018-04-24T11:23:45.090Z,29.50
2018-04-24T11:26:13.521Z,29.90
2018-04-24T11:28:43.048Z,28.90
2018-04-24T11:31:11.610Z,28.90
2018-04-24T11:33:40.056Z,29.20
2018-04-24T11:36:09.544Z,29.90
2018-04-24T11:38:37.974Z,29.90
2018-04-24T11:41:06.680Z,28.90
2018-04-24T11:43:35.378Z,29.30
2018-04-24T11:46:03.812Z,28.50
2018-04-24T11:48:32.260Z,27.80
2018-04-24T11:51:00.712Z,28.80
2018-04-24T11:53:29.225Z,29.90
2018-04-24T11:55:58.801Z,29.70
2018-04-24T11:58:27.274Z,29.70
2018-04-24T12:00:56.258Z,29.80
2018-04-24T12:03:25.453Z,29.40
2018-04-24T12:05:54.379Z,29.30
2018-04-24T12:08:22.825Z,29.00
2018-04-24T12:10:51.534Z,28.70
2018-04-24T12:13:20.316Z,28.40
2018-04-24T12:15:49.034Z,28.30
2018-04-24T12:18:17.650Z,27.60
2018-04-24T12:20:46.318Z,28.10
2018-04-24T12:23:15.175Z,28.50
2018-04-24T12:25:43.730Z,29.70
2018-04-24T12:28:13.148Z,30.70
2018-04-24T12:30:41.587Z,30.70
2018-04-24T12:33:11.024Z,31.00
2018-04-24T12:35:39.473Z,30.90
2018-04-24T12:38:08.173Z,31.70
2018-04-24T12:40:37.377Z,32.00
2018-04-24T12:43:05.991Z,32.00
2018-04-24T12:45:34.433Z,31.30
2018-04-24T12:48:03.646Z,31.80
2018-04-24T12:50:32.113Z,31.80
2018-04-24T12:53:01.320Z,31.20
2018-04-24T12:55:30.733Z,30.40
2018-04-24T12:57:59.182Z,30.40
2018-04-24T13:00:28.495Z,27.50
2018-04-24T13:02:57.695Z,27.50
2018-04-24T13:05:26.925Z,28.30
2018-04-24T13:07:56.414Z,28.60
2018-04-24T13:10:25.903Z,27.60
2018-04-24T13:12:56.147Z,27.00
2018-04-24T13:15:24.618Z,27.00
2018-04-24T13:17:53.225Z,28.10
2018-04-24T13:20:21.673Z,29.10
2018-04-24T13:22:50.105Z,29.90
2018-04-24T13:25:18.746Z,30.60
2018-04-24T13:27:47.194Z,30.50
2018-04-24T13:30:16.726Z,30.50
2018-04-24T13:32:45.205Z,30.50
2018-04-24T13:35:13.667Z,30.30
2018-04-24T13:37:42.368Z,30.80
2018-04-24T13:40:11.046Z,30.80
2018-04-24T13:42:39.773Z,30.30
2018-04-24T13:45:08.207Z,30.20
2018-04-24T13:47:37.422Z,29.20
2018-04-24T13:50:05.539Z,29.20
2018-04-24T13:52:33.985Z,29.70
2018-04-24T13:55:03.463Z,30.30
2018-04-24T13:57:32.780Z,30.30
2018-04-24T14:00:02.064Z,30.30
2018-04-24T14:02:30.654Z,30.30
2018-04-24T14:04:59.121Z,29.90
2018-04-24T14:07:27.561Z,30.20
2018-04-24T14:09:56.382Z,30.20
2018-04-24T14:12:24.834Z,30.50
2018-04-24T14:14:53.541Z,30.80
2018-04-24T14:17:22.069Z,30.90
2018-04-24T14:19:51.343Z,30.20
2018-04-24T14:22:19.773Z,30.10
2018-04-24T14:24:48.218Z,30.00
2018-04-24T14:27:16.788Z,29.70
2018-04-24T14:29:45.492Z,29.50
2018-04-24T14:32:14.960Z,29.70
2018-04-24T14:34:43.698Z,29.70
2018-04-24T14:37:12.126Z,29.70
2018-04-24T14:39:41.416Z,28.60
2018-04-24T14:42:09.639Z,28.60
2018-04-24T14:44:38.096Z,28.00
2018-04-24T14:47:06.841Z,28.00
2018-04-24T14:49:36.184Z,27.60
2018-04-24T14:52:06.261Z,27.90
2018-04-24T14:54:34.974Z,27.90
2018-04-24T14:57:03.425Z,28.00
2018-04-24T14:59:32.720Z,28.20
2018-04-24T15:02:01.417Z,28.20
2018-04-24T15:04:30.626Z,27.50
2018-04-24T15:06:59.069Z,27.50
2018-04-24T15:09:27.688Z,27.40
2018-04-24T15:11:56.257Z,27.50
2018-04-24T15:14:25.644Z,27.70
2018-04-24T15:16:53.796Z,27.60
2018-04-24T15:19:23.013Z,27.20
2018-04-24T15:21:51.479Z,27.20
2018-04-24T15:24:19.921Z,27.40
2018-04-24T15:26:48.385Z,27.50
2018-04-24T15:29:17.015Z,28.00
2018-04-24T15:31:45.475Z,28.30
2018-04-24T15:34:14.124Z,28.40
2018-04-24T15:36:42.553Z,28.20
2018-04-24T15:39:10.992Z,27.50
2018-04-24T15:41:39.764Z,27.40
2018-04-24T15:44:09.267Z,26.50
2018-04-24T15:46:38.473Z,26.20
2018-04-24T15:49:06.916Z,26.20
2018-04-24T15:51:35.648Z,25.90
2018-04-24T15:54:04.406Z,26.20
2018-04-24T15:56:33.126Z,26.10
2018-04-24T15:59:01.573Z,25.90
2018-04-24T16:01:30.784Z,25.00
2018-04-24T16:03:59.258Z,25.00
2018-04-24T16:06:28.476Z,24.10
2018-04-24T16:08:57.212Z,24.10
2018-04-24T16:11:25.653Z,23.70
2018-04-24T16:13:54.166Z,23.40
2018-04-24T16:16:22.597Z,22.90
2018-04-24T16:18:51.296Z,22.50
2018-04-24T16:21:20.360Z,22.30
2018-04-24T16:23:49.561Z,22.30
2018-04-24T16:26:18.016Z,22.30
2018-04-24T16:28:46.828Z,22.40
2018-04-24T16:31:15.427Z,22.40
2018-04-24T16:33:44.017Z,22.30
2018-04-24T16:36:13.794Z,22.10
2018-04-24T16:38:43.305Z,21.90
2018-04-24T16:41:12.011Z,21.90
2018-04-24T16:43:40.477Z,22.00
2018-04-24T16:46:09.045Z,21.90
2018-04-24T16:48:39.133Z,21.80
2018-04-24T16:51:07.603Z,21.80
2018-04-24T16:53:36.205Z,21.70
2018-04-24T16:56:04.656Z,21.60
2018-04-24T16:58:33.509Z,21.60
2018-04-24T17:01:01.950Z,21.50
2018-04-24T17:03:30.419Z,21.50
2018-04-24T17:05:58.929Z,21.50
2018-04-24T17:08:28.308Z,21.40
2018-04-24T17:10:57.043Z,21.40
2018-04-24T17:13:25.474Z,21.30
2018-04-24T17:15:53.924Z,21.20
2018-04-24T17:18:23.437Z,21.00
2018-04-24T17:20:52.171Z,20.90
2018-04-24T17:23:20.750Z,20.90
2018-04-24T17:25:49.477Z,20.80
2018-04-24T17:28:17.919Z,20.70
2018-04-24T17:30:47.201Z,20.60
2018-04-24T17:33:16.952Z,20.40
2018-04-24T17:35:45.797Z,20.40
2018-04-24T17:38:14.534Z,20.40
2018-04-24T17:40:44.024Z,20.10
2018-04-24T17:43:12.457Z,20.10
2018-04-24T17:45:40.889Z,19.90
2018-04-24T17:48:09.338Z,19.80
2018-04-24T17:50:38.694Z,19.80
2018-04-24T17:53:07.440Z,19.80
2018-04-24T17:55:36.142Z,19.70
2018-04-24T17:58:04.247Z,19.60
2018-04-24T18:00:32.681Z,19.50
2018-04-24T18:03:01.252Z,19.30
2018-04-24T18:05:29.693Z,19.10
2018-04-24T18:07:58.133Z,19.00
2018-04-24T18:10:26.877Z,18.90
2018-04-24T18:12:55.603Z,18.70
2018-04-24T18:15:24.060Z,18.70
2018-04-24T18:17:53.562Z,18.60
2018-04-24T18:20:22.269Z,18.40
2018-04-24T18:22:51.739Z,18.20
2018-04-24T18:25:20.965Z,18.10
2018-04-24T18:27:49.502Z,18.10
2018-04-24T18:30:18.246Z,18.10
2018-04-24T18:32:46.733Z,18.00
2018-04-24T18:35:15.211Z,17.90
2018-04-24T18:37:44.263Z,17.80
2018-04-24T18:40:13.815Z,17.60
2018-04-24T18:42:43.784Z,17.70
2018-04-24T18:45:12.882Z,17.70
2018-04-24T18:47:41.767Z,17.60
2018-04-24T18:50:11.212Z,17.40
2018-04-24T18:52:40.648Z,17.30
2018-04-24T18:55:09.869Z,17.30
2018-04-24T18:57:38.505Z,17.30
2018-04-24T19:00:06.712Z,17.20
2018-04-24T19:02:36.353Z,17.20
2018-04-24T19:05:04.773Z,17.10
2018-04-24T19:07:33.514Z,17.20
2018-04-24T19:10:03.017Z,17.00
2018-04-24T19:12:31.728Z,17.00
2018-04-24T19:15:00.303Z,16.90
2018-04-24T19:17:29.047Z,16.90
2018-04-24T19:19:57.721Z,16.90
2018-04-24T19:22:26.484Z,16.90
2018-04-24T19:25:00.442Z,16.80
2018-04-24T19:27:28.928Z,16.70
2018-04-24T19:29:57.385Z,16.60
2018-04-24T19:32:30.622Z,16.50
2018-04-24T19:34:59.074Z,16.40
2018-04-24T19:37:27.778Z,16.40
2018-04-24T19:40:01.947Z,16.30
2018-04-24T19:42:30.657Z,16.40
2018-04-24T19:44:59.107Z,16.30
2018-04-24T19:47:27.818Z,16.30
2018-04-24T19:50:01.593Z,16.10
2018-04-24T19:52:30.237Z,16.20
2018-04-24T19:55:04.314Z,16.10
2018-04-24T19:57:33.479Z,16.10
2018-04-24T20:00:02.727Z,16.10
2018-04-24T20:02:32.251Z,16.10
2018-04-24T20:05:00.909Z,16.00
2018-04-24T20:07:30.693Z,15.90
2018-04-24T20:09:59.142Z,15.90
2018-04-24T20:12:27.582Z,15.90
2018-04-24T20:14:56.043Z,15.80
2018-04-24T20:17:25.246Z,15.60
2018-04-24T20:19:54.030Z,15.60
2018-04-24T20:22:23.230Z,15.50
2018-04-24T20:24:52.114Z,15.50
2018-04-24T20:27:20.744Z,15.50
2018-04-24T20:29:49.278Z,15.50
2018-04-24T20:32:17.975Z,15.50
2018-04-24T20:34:46.801Z,15.40
2018-04-24T20:37:15.249Z,15.30
2018-04-24T20:39:43.692Z,15.20
2018-04-24T20:42:12.914Z,15.30
2018-04-24T20:44:41.746Z,15.20
2018-04-24T20:47:10.547Z,15.20
2018-04-24T20:49:39.005Z,15.20
2018-04-24T20:52:07.815Z,15.20
2018-04-24T20:54:37.018Z,15.10
2018-04-24T20:57:05.716Z,15.10
2018-04-24T20:59:34.728Z,15.00
2018-04-24T21:02:03.601Z,14.90
2018-04-24T21:04:32.308Z,14.90
2018-04-24T21:07:01.025Z,14.90
2018-04-24T21:09:29.470Z,14.90
2018-04-24T21:11:58.193Z,14.70
2018-04-24T21:14:26.646Z,14.80
2018-04-24T21:16:55.795Z,14.80
2018-04-24T21:19:24.332Z,14.70
2018-04-24T21:21:52.981Z,14.70
2018-04-24T21:24:21.576Z,14.70
2018-04-24T21:26:50.990Z,14.50
2018-04-24T21:29:19.750Z,14.50
2018-04-24T21:31:48.948Z,14.50
2018-04-24T21:34:18.171Z,14.40
2018-04-24T21:36:46.711Z,14.40
2018-04-24T21:39:15.946Z,14.40
2018-04-24T21:41:44.584Z,14.40
2018-04-24T21:44:13.223Z,14.50
2018-04-24T21:46:41.673Z,14.40
2018-04-24T21:49:11.182Z,14.40
2018-04-24T21:51:40.409Z,14.40
2018-04-24T21:54:08.994Z,14.30
2018-04-24T21:56:37.462Z,14.50
2018-04-24T21:59:06.183Z,14.50
2018-04-24T22:01:34.754Z,14.40
2018-04-24T22:04:03.192Z,14.40
2018-04-24T22:06:32.008Z,14.40
2018-04-24T22:09:01.705Z,14.30
2018-04-24T22:11:30.290Z,14.30
2018-04-24T22:13:58.742Z,14.30
2018-04-24T22:16:27.767Z,14.30
2018-04-24T22:18:56.262Z,14.20
2018-04-24T22:21:25.000Z,14.20
2018-04-24T22:23:53.721Z,14.20
2018-04-24T22:26:22.322Z,14.30
2018-04-24T22:28:50.783Z,14.20
2018-04-24T22:31:19.233Z,14.20
2018-04-24T22:33:48.002Z,14.10
2018-04-24T22:36:17.312Z,14.10
2018-04-24T22:38:46.533Z,14.10
2018-04-24T22:41:15.229Z,14.10
2018-04-24T22:43:43.963Z,14.10
2018-04-24T22:46:12.385Z,14.00
2018-04-24T22:48:40.947Z,14.00
2018-04-24T22:51:10.163Z,13.70
2018-04-24T22:53:38.966Z,13.70
2018-04-24T22:56:08.117Z,13.70
2018-04-24T22:58:37.317Z,13.60
2018-04-24T23:01:06.042Z,13.60
2018-04-24T23:03:34.469Z,13.50
2018-04-24T23:06:02.909Z,13.40
2018-04-24T23:08:31.373Z,13.40
2018-04-24T23:11:10.833Z,13.50
2018-04-24T23:13:50.670Z,13.60
2018-04-24T23:16:30.380Z,13.60
2018-04-24T23:19:10.287Z,13.60
2018-04-24T23:21:37.567Z,13.60
2018-04-24T23:24:06.162Z,13.70
2018-04-24T23:26:34.689Z,13.70
2018-04-24T23:29:03.151Z,13.70
2018-04-24T23:31:32.638Z,13.80
2018-04-24T23:34:01.362Z,13.80
2018-04-24T23:36:29.785Z,13.80
2018-04-24T23:38:58.989Z,13.80
2018-04-24T23:41:27.452Z,13.70
2018-04-24T23:43:56.178Z,13.70
2018-04-24T23:46:24.269Z,13.70
2018-04-24T23:48:52.476Z,13.60
2018-04-24T23:51:22.443Z,13.40
2018-04-24T23:53:51.917Z,13.40
2018-04-24T23:56:20.493Z,13.40
2018-04-24T23:58:48.996Z,13.30
